TAF LFSB
LFSB 072300Z 0800/0824 11008KT 9999 -RA BKN035 PROB30 TEMPO 0800/0808 3000 RA BR BKN005 BECMG 0812/0815 26010KT=
METAR LFSB
LFSB 080400Z AUTO 20004KT 160V230 5000 RA BR BKN014/// BKN022/// OVC027/// ///TCU 04/03 Q1001 TEMPO BKN005=
LFSB 080330Z AUTO 20003KT 150V230 7000 -RA FEW016/// BKN032/// OVC044/// ///TCU 04/03 Q1001 TEMPO 3000 RA BR BKN005=
LFSB 080300Z AUTO 18004KT 140V240 6000 -RA BKN034/// BKN040/// OVC048/// ///TCU 04/03 Q1001 TEMPO 3000 RA BR BKN005=
LFSB 080230Z AUTO 17005KT 140V220 9000 -RA BKN032/// OVC039/// ///TCU 04/03 Q1001 TEMPO 3000 RA BR BKN005=
LFSB 080200Z AUTO 15009KT 7000 -RA BKN039/// BKN047/// OVC056/// ///TCU 04/03 Q1001 TEMPO 3000 RA BR BKN005=
WC LFSB
WS LFSB
WV LFSB